createdAt,value
2022-10-14T00:01:27.068Z,32.00
2022-10-14T00:04:06.369Z,30.40
2022-10-14T00:06:35.074Z,31.90
2022-10-14T00:09:08.738Z,32.30
2022-10-14T00:11:38.024Z,36.50
2022-10-14T00:14:14.439Z,34.00
2022-10-14T00:16:46.707Z,33.60
2022-10-14T00:19:15.488Z,32.60
2022-10-14T00:21:45.919Z,34.40
2022-10-14T00:24:17.102Z,33.70
2022-10-14T00:29:51.876Z,33.20
2022-10-14T00:32:20.168Z,33.20
2022-10-14T00:34:48.402Z,37.10
2022-10-14T00:37:16.643Z,32.60
2022-10-14T00:39:44.830Z,32.50
2022-10-14T00:42:15.527Z,34.20
2022-10-14T00:44:43.656Z,35.00
2022-10-14T00:47:12.789Z,34.50
2022-10-14T00:49:44.400Z,32.90
2022-10-14T00:52:22.271Z,35.60
2022-10-14T00:54:56.795Z,34.50
2022-10-14T00:57:26.739Z,33.90
2022-10-14T01:00:02.635Z,31.40
2022-10-14T01:02:31.039Z,31.10
2022-10-14T01:05:01.501Z,32.00
2022-10-14T01:08:21.212Z,31.60
2022-10-14T01:11:16.314Z,30.50
2022-10-14T01:14:28.736Z,31.90
2022-10-14T01:17:04.109Z,32.20
2022-10-14T01:22:33.011Z,29.80
2022-10-14T01:25:09.317Z,31.40
2022-10-14T01:28:03.843Z,30.50
2022-10-14T01:30:38.827Z,29.80
2022-10-14T01:33:19.913Z,28.80
2022-10-14T01:36:29.936Z,30.50
2022-10-14T01:39:15.395Z,28.30
2022-10-14T01:41:50.900Z,31.90
2022-10-14T01:44:23.015Z,32.20
2022-10-14T01:46:54.773Z,31.20
2022-10-14T01:49:38.901Z,28.80
2022-10-14T01:52:28.492Z,31.80
2022-10-14T01:55:09.288Z,28.50
2022-10-14T01:57:41.818Z,31.00
2022-10-14T02:00:11.502Z,33.60
2022-10-14T02:02:41.972Z,33.40
2022-10-14T02:05:55.840Z,30.30
2022-10-14T02:09:00.990Z,31.10
2022-10-14T02:11:57.769Z,32.50
2022-10-14T02:15:29.733Z,33.00
2022-10-14T02:18:19.321Z,30.10
2022-10-14T02:20:57.348Z,31.50
2022-10-14T02:23:37.675Z,33.90
2022-10-14T02:26:08.330Z,32.10
2022-10-14T02:28:38.044Z,33.30
2022-10-14T02:31:14.028Z,29.30
2022-10-14T02:33:49.141Z,31.90
2022-10-14T02:36:21.864Z,33.10
2022-10-14T02:38:50.519Z,32.60
2022-10-14T02:41:23.131Z,31.70
2022-10-14T02:43:51.526Z,33.40
2022-10-14T02:46:22.754Z,31.10
2022-10-14T02:48:51.323Z,29.80
2022-10-14T02:51:19.587Z,33.10
2022-10-14T02:53:48.061Z,36.40
2022-10-14T02:56:18.231Z,34.40
2022-10-14T02:58:46.543Z,30.20
2022-10-14T03:01:14.830Z,29.70
2022-10-14T03:03:43.032Z,31.20
2022-10-14T03:06:11.250Z,33.00
2022-10-14T03:08:39.669Z,33.20
2022-10-14T03:11:08.062Z,32.60
2022-10-14T03:23:13.034Z,34.40
2022-10-14T03:25:45.180Z,32.30
2022-10-14T03:28:13.716Z,33.00
2022-10-14T03:30:41.981Z,32.40
2022-10-14T03:33:14.277Z,33.40
2022-10-14T03:35:43.186Z,30.00
2022-10-14T03:38:11.572Z,32.00
2022-10-14T03:40:39.774Z,36.60
2022-10-14T03:43:08.058Z,37.00
2022-10-14T03:45:36.325Z,34.70
2022-10-14T03:48:04.821Z,33.70
2022-10-14T03:50:33.107Z,32.80
2022-10-14T03:53:01.387Z,32.50
2022-10-14T03:55:30.022Z,33.10
2022-10-14T03:57:58.244Z,30.70
2022-10-14T04:00:26.486Z,35.00
2022-10-14T04:02:54.691Z,32.20
2022-10-14T04:05:22.932Z,33.30
2022-10-14T04:07:51.632Z,34.60
2022-10-14T04:10:19.860Z,34.30
2022-10-14T04:12:48.470Z,30.60
2022-10-14T04:15:17.407Z,33.40
2022-10-14T04:17:45.695Z,30.90
2022-10-14T04:20:14.242Z,32.10
2022-10-14T04:22:42.763Z,32.00
2022-10-14T04:25:11.240Z,34.20
2022-10-14T04:27:39.531Z,31.50
2022-10-14T04:30:09.651Z,33.40
2022-10-14T04:32:37.977Z,33.10
2022-10-14T04:35:06.658Z,32.70
2022-10-14T04:37:34.965Z,35.20
2022-10-14T04:40:04.771Z,33.50
2022-10-14T04:42:33.015Z,34.00
2022-10-14T04:45:02.103Z,32.20
2022-10-14T04:47:30.670Z,32.90
2022-10-14T04:49:58.951Z,32.10
2022-10-14T04:52:27.394Z,34.10
2022-10-14T04:54:55.783Z,30.20
2022-10-14T04:57:24.032Z,30.10
2022-10-14T04:59:52.253Z,32.00
2022-10-14T05:02:20.831Z,30.00
2022-10-14T05:04:49.364Z,29.70
2022-10-14T05:07:17.806Z,29.60
2022-10-14T05:09:49.620Z,30.70
2022-10-14T05:12:18.942Z,29.40
2022-10-14T05:14:47.372Z,30.70
2022-10-14T05:17:15.782Z,32.80
2022-10-14T05:19:44.131Z,31.70
2022-10-14T05:22:12.673Z,32.90
2022-10-14T05:24:41.042Z,31.40
2022-10-14T05:27:09.423Z,31.90
2022-10-14T05:29:37.667Z,32.50
2022-10-14T05:32:05.969Z,31.00
2022-10-14T05:34:35.223Z,35.10
2022-10-14T05:37:03.657Z,33.20
2022-10-14T05:39:31.892Z,36.10
2022-10-14T05:42:00.132Z,32.70
2022-10-14T05:44:28.393Z,34.30
2022-10-14T05:46:56.694Z,35.40
2022-10-14T05:49:24.944Z,36.20
2022-10-14T05:51:53.483Z,37.90
2022-10-14T05:54:21.741Z,37.50
2022-10-14T05:56:49.997Z,36.70
2022-10-14T05:59:18.246Z,35.50
2022-10-14T06:01:46.493Z,36.00
2022-10-14T06:04:20.195Z,37.50
2022-10-14T06:06:48.607Z,37.20
2022-10-14T06:09:17.649Z,36.80
2022-10-14T06:11:46.309Z,36.50
2022-10-14T06:14:14.543Z,35.70
2022-10-14T06:16:42.776Z,37.60
2022-10-14T06:19:11.195Z,37.50
2022-10-14T06:21:39.481Z,33.70
2022-10-14T06:24:08.295Z,36.00
2022-10-14T06:26:36.994Z,34.20
2022-10-14T06:29:05.424Z,34.90
2022-10-14T06:31:33.821Z,35.50
2022-10-14T06:34:05.977Z,34.80
2022-10-14T06:36:35.534Z,33.90
2022-10-14T06:39:05.199Z,34.80
2022-10-14T06:41:33.549Z,37.30
2022-10-14T06:44:01.760Z,37.20
2022-10-14T06:50:36.719Z,34.70
2022-10-14T06:53:05.007Z,31.90
2022-10-14T06:55:33.302Z,35.30
2022-10-14T06:58:01.611Z,32.50
2022-10-14T07:00:29.912Z,32.70
2022-10-14T07:02:59.648Z,34.10
2022-10-14T07:05:28.071Z,33.40
2022-10-14T07:07:58.746Z,32.10
2022-10-14T07:10:27.139Z,31.70
2022-10-14T07:12:56.307Z,29.70
2022-10-14T07:15:24.595Z,29.90
2022-10-14T07:17:52.815Z,31.70
2022-10-14T07:20:21.121Z,32.10
2022-10-14T07:22:49.333Z,30.60
2022-10-14T07:25:17.577Z,32.70
2022-10-14T07:27:45.811Z,31.20
2022-10-14T07:30:16.771Z,31.10
2022-10-14T07:32:46.105Z,32.70
2022-10-14T07:35:16.708Z,29.30
2022-10-14T07:37:46.628Z,29.40
2022-10-14T07:40:14.997Z,28.50
2022-10-14T07:42:43.263Z,31.70
2022-10-14T07:45:17.702Z,28.80
2022-10-14T07:47:49.776Z,28.90
2022-10-14T07:50:18.751Z,29.80
2022-10-14T07:52:47.080Z,30.30
2022-10-14T07:55:15.410Z,31.70
2022-10-14T07:57:43.778Z,31.30
2022-10-14T08:00:12.496Z,27.40
2022-10-14T08:02:40.732Z,26.30
2022-10-14T08:05:32.893Z,28.50
2022-10-14T08:07:57.284Z,28.70
2022-10-14T08:10:25.522Z,30.00
2022-10-14T08:12:53.864Z,25.90
2022-10-14T08:15:22.091Z,26.10
2022-10-14T08:17:50.294Z,25.70
2022-10-14T08:20:18.657Z,27.50
2022-10-14T08:22:47.060Z,27.20
2022-10-14T08:25:15.363Z,25.90
2022-10-14T08:27:43.555Z,26.80
2022-10-14T08:30:12.043Z,25.50
2022-10-14T08:32:40.307Z,24.90
2022-10-14T08:35:11.110Z,24.80
2022-10-14T08:37:39.368Z,23.70
2022-10-14T08:40:11.449Z,21.80
2022-10-14T08:43:17.025Z,20.70
2022-10-14T08:45:55.583Z,21.30
2022-10-14T08:48:28.727Z,21.30
2022-10-14T08:51:09.981Z,21.70
2022-10-14T08:53:46.684Z,21.90
2022-10-14T08:56:17.468Z,21.00
2022-10-14T08:58:52.679Z,24.80
2022-10-14T09:01:36.413Z,21.70
2022-10-14T09:04:14.328Z,19.40
2022-10-14T09:06:46.914Z,22.20
2022-10-14T09:09:45.324Z,19.70
2022-10-14T09:12:20.718Z,19.60
2022-10-14T09:15:07.979Z,20.60
2022-10-14T09:18:02.107Z,18.40
2022-10-14T09:20:30.363Z,17.00
2022-10-14T09:23:04.772Z,19.50
2022-10-14T09:25:36.031Z,19.20
2022-10-14T09:28:04.446Z,19.10
2022-10-14T09:30:37.919Z,20.10
2022-10-14T09:33:07.334Z,19.50
2022-10-14T09:35:41.483Z,18.80
2022-10-14T09:38:12.889Z,19.90
2022-10-14T09:40:49.371Z,19.20
2022-10-14T09:43:21.680Z,17.50
2022-10-14T09:45:56.038Z,17.80
2022-10-14T09:48:40.228Z,16.80
2022-10-14T09:51:18.114Z,17.20
2022-10-14T09:53:55.108Z,18.60
2022-10-14T09:56:31.933Z,17.80
2022-10-14T09:59:02.221Z,16.80
2022-10-14T10:01:41.622Z,17.20
2022-10-14T10:04:31.859Z,17.40
2022-10-14T10:07:05.942Z,17.00
2022-10-14T10:09:34.738Z,16.80
2022-10-14T10:12:25.397Z,16.80
2022-10-14T10:14:58.622Z,16.90
2022-10-14T10:17:29.533Z,16.60
2022-10-14T10:20:31.751Z,16.80
2022-10-14T10:23:25.770Z,15.20
2022-10-14T10:25:54.054Z,16.30
2022-10-14T10:28:31.970Z,15.80
2022-10-14T10:31:18.221Z,15.30
2022-10-14T10:34:38.350Z,14.40
2022-10-14T10:37:30.077Z,15.30
2022-10-14T10:40:47.576Z,17.00
2022-10-14T10:43:44.292Z,13.10
2022-10-14T10:46:38.089Z,13.20
2022-10-14T10:49:38.570Z,13.10
2022-10-14T10:52:32.243Z,14.10
2022-10-14T10:55:13.371Z,14.60
2022-10-14T10:58:40.992Z,13.00
2022-10-14T11:01:36.773Z,12.60
2022-10-14T11:04:22.364Z,13.30
2022-10-14T11:07:49.616Z,13.40
2022-10-14T11:10:53.742Z,14.10
2022-10-14T11:13:35.008Z,13.90
2022-10-14T11:16:37.882Z,13.90
2022-10-14T11:19:40.912Z,13.80
2022-10-14T11:22:49.451Z,15.00
2022-10-14T11:25:56.411Z,13.20
2022-10-14T11:28:51.487Z,12.10
2022-10-14T11:31:57.217Z,12.80
2022-10-14T11:38:09.789Z,13.10
2022-10-14T11:40:57.160Z,12.30
2022-10-14T11:43:39.570Z,11.00
2022-10-14T11:46:12.631Z,10.90
2022-10-14T11:48:51.379Z,13.20
2022-10-14T11:51:25.425Z,12.60
2022-10-14T11:54:11.365Z,11.30
2022-10-14T11:57:06.138Z,11.40
2022-10-14T11:59:51.261Z,10.70
2022-10-14T12:02:32.062Z,12.50
2022-10-14T12:05:22.783Z,11.80
2022-10-14T12:08:07.447Z,11.70
2022-10-14T12:10:44.553Z,12.90
2022-10-14T12:13:22.365Z,10.60
2022-10-14T12:15:53.220Z,11.20
2022-10-14T12:18:21.901Z,11.20
2022-10-14T12:21:05.099Z,11.00
2022-10-14T12:23:41.248Z,12.60
2022-10-14T12:26:24.924Z,11.90
2022-10-14T12:28:56.061Z,10.70
2022-10-14T12:31:31.904Z,10.70
2022-10-14T12:34:13.606Z,10.50
2022-10-14T12:36:45.400Z,10.80
2022-10-14T12:39:19.590Z,9.10
2022-10-14T12:42:12.640Z,9.30
2022-10-14T12:44:52.068Z,9.70
2022-10-14T12:47:35.315Z,9.90
2022-10-14T12:50:28.229Z,9.90
2022-10-14T12:53:01.458Z,9.10
2022-10-14T12:55:35.833Z,9.40
2022-10-14T12:58:05.994Z,8.70
2022-10-14T13:00:41.059Z,8.80
2022-10-14T13:03:28.003Z,7.90
2022-10-14T13:06:30.894Z,9.00
2022-10-14T13:09:31.805Z,7.80
2022-10-14T13:12:00.025Z,8.80
2022-10-14T13:15:01.639Z,7.80
2022-10-14T13:17:42.166Z,7.80
2022-10-14T13:20:35.411Z,9.20
2022-10-14T13:23:30.136Z,8.30
2022-10-14T13:26:32.386Z,8.30
2022-10-14T13:29:17.663Z,7.90
2022-10-14T13:31:59.555Z,8.20
2022-10-14T13:34:55.273Z,8.40
2022-10-14T13:37:41.953Z,11.10
2022-10-14T13:40:21.500Z,7.50
2022-10-14T13:43:13.241Z,7.90
2022-10-14T13:45:52.057Z,7.10
2022-10-14T13:48:34.344Z,8.60
2022-10-14T13:51:24.665Z,9.00
2022-10-14T13:54:21.970Z,8.30
2022-10-14T14:02:53.858Z,7.70
2022-10-14T14:05:25.359Z,8.00
2022-10-14T14:11:14.942Z,8.20
2022-10-14T14:13:58.872Z,8.90
2022-10-14T14:16:40.389Z,6.70
2022-10-14T14:19:28.173Z,9.20
2022-10-14T14:22:14.485Z,8.10
2022-10-14T14:24:43.698Z,9.60
2022-10-14T14:27:22.104Z,8.70
2022-10-14T14:29:54.965Z,7.80
2022-10-14T14:32:30.417Z,8.30
2022-10-14T14:35:00.665Z,8.80
2022-10-14T14:40:26.919Z,8.80
2022-10-14T14:43:02.638Z,9.20
2022-10-14T14:45:37.691Z,7.50
2022-10-14T14:48:07.800Z,8.10
2022-10-14T14:50:42.812Z,7.30
2022-10-14T14:53:16.892Z,9.00
2022-10-14T14:55:56.967Z,8.60
2022-10-14T14:58:45.022Z,8.50
2022-10-14T15:01:31.450Z,8.30
2022-10-14T15:04:13.273Z,7.20
2022-10-14T15:07:05.691Z,7.50
2022-10-14T15:09:56.126Z,6.40
2022-10-14T15:12:30.846Z,6.90
2022-10-14T15:17:39.591Z,8.50
2022-10-14T15:20:10.866Z,8.70
2022-10-14T15:22:41.221Z,8.10
2022-10-14T15:25:21.704Z,8.70
2022-10-14T15:27:56.819Z,9.90
2022-10-14T15:30:34.616Z,8.70
2022-10-14T15:33:13.528Z,8.10
2022-10-14T15:35:44.624Z,8.70
2022-10-14T15:38:18.337Z,8.20
2022-10-14T15:40:48.464Z,8.70
2022-10-14T15:43:22.621Z,9.30
2022-10-14T15:46:13.329Z,9.90
2022-10-14T15:48:59.108Z,9.10
2022-10-14T15:51:30.773Z,9.70
2022-10-14T15:53:59.069Z,8.20
2022-10-14T15:56:29.907Z,8.60
2022-10-14T15:58:58.068Z,8.40
2022-10-14T16:01:26.506Z,9.20
2022-10-14T16:03:55.466Z,8.80
2022-10-14T16:06:24.607Z,7.80
2022-10-14T16:08:53.191Z,8.40
2022-10-14T16:11:29.697Z,8.40
2022-10-14T16:13:57.941Z,8.00
2022-10-14T16:16:41.009Z,7.10
2022-10-14T16:19:11.504Z,8.10
2022-10-14T16:21:40.444Z,8.20
2022-10-14T16:24:20.375Z,9.10
2022-10-14T16:26:49.260Z,8.70
2022-10-14T16:29:19.603Z,8.30
2022-10-14T16:31:50.064Z,8.10
2022-10-14T16:34:22.988Z,8.60
2022-10-14T16:36:52.113Z,8.50
2022-10-14T16:39:20.472Z,8.30
2022-10-14T16:41:49.850Z,8.20
2022-10-14T16:44:25.080Z,8.20
2022-10-14T16:47:14.903Z,7.90
2022-10-14T16:49:46.182Z,7.90
2022-10-14T16:52:16.210Z,8.80
2022-10-14T16:54:44.691Z,8.50
2022-10-14T16:57:13.276Z,10.60
2022-10-14T16:59:42.188Z,8.10
2022-10-14T17:02:15.843Z,10.70
2022-10-14T17:04:46.585Z,10.80
2022-10-14T17:07:17.419Z,10.70
2022-10-14T17:09:45.781Z,10.70
2022-10-14T17:12:14.456Z,11.90
2022-10-14T17:14:43.022Z,20.50
2022-10-14T17:17:13.113Z,22.70
2022-10-14T17:19:41.546Z,20.10
2022-10-14T17:22:10.474Z,16.80
2022-10-14T17:24:38.722Z,12.90
2022-10-14T17:27:07.033Z,13.60
2022-10-14T17:29:35.575Z,12.20
2022-10-14T17:32:04.406Z,10.80
2022-10-14T17:34:32.894Z,10.50
2022-10-14T17:37:02.106Z,11.70
2022-10-14T17:39:30.432Z,10.60
2022-10-14T17:41:58.820Z,10.60
2022-10-14T17:44:28.953Z,11.80
2022-10-14T17:46:57.344Z,11.10
2022-10-14T17:49:25.659Z,12.60
2022-10-14T17:51:53.883Z,13.10
2022-10-14T17:54:22.332Z,11.90
2022-10-14T17:56:51.117Z,13.40
2022-10-14T17:59:19.757Z,12.00
2022-10-14T18:02:02.162Z,10.80
2022-10-14T18:04:32.864Z,17.10
2022-10-14T18:07:01.470Z,14.50
2022-10-14T18:09:29.798Z,14.40
2022-10-14T18:12:13.600Z,13.80
2022-10-14T18:14:42.732Z,14.90
2022-10-14T18:17:12.539Z,17.50
2022-10-14T18:19:42.190Z,16.00
2022-10-14T18:22:11.321Z,17.90
2022-10-14T18:33:36.971Z,19.70
2022-10-14T18:36:08.049Z,19.20
2022-10-14T18:38:37.637Z,18.10
2022-10-14T18:41:14.519Z,20.70
2022-10-14T18:43:43.253Z,19.50
2022-10-14T18:46:18.276Z,20.10
2022-10-14T18:48:53.443Z,21.80
2022-10-14T18:51:26.822Z,22.70
2022-10-14T18:54:00.759Z,23.10
2022-10-14T18:56:33.820Z,21.50
2022-10-14T18:59:15.151Z,22.70
2022-10-14T19:01:44.154Z,23.10
2022-10-14T19:04:15.165Z,22.00
2022-10-14T19:06:50.688Z,23.70
2022-10-14T19:09:23.999Z,21.50
2022-10-14T19:11:52.875Z,22.20
2022-10-14T19:14:22.270Z,23.70
2022-10-14T19:16:51.250Z,23.50
2022-10-14T19:19:20.246Z,23.30
2022-10-14T19:21:51.116Z,22.00
2022-10-14T19:24:19.332Z,23.00
2022-10-14T19:26:48.018Z,24.60
2022-10-14T19:29:16.804Z,29.60
2022-10-14T19:31:45.116Z,25.10
2022-10-14T19:34:16.263Z,20.50
2022-10-14T19:36:45.888Z,24.40
2022-10-14T19:39:16.564Z,22.00
2022-10-14T19:41:46.696Z,22.20
2022-10-14T19:44:16.506Z,21.90
2022-10-14T19:46:45.774Z,22.10
2022-10-14T19:49:15.788Z,22.60
2022-10-14T19:51:44.852Z,21.20
2022-10-14T19:54:15.225Z,21.10
2022-10-14T19:56:43.517Z,24.00
2022-10-14T19:59:13.631Z,21.20
2022-10-14T20:01:42.123Z,20.60
2022-10-14T20:04:10.887Z,23.30
2022-10-14T20:06:40.441Z,21.40
2022-10-14T20:09:12.501Z,20.40
2022-10-14T20:11:43.096Z,22.00
2022-10-14T20:14:11.386Z,22.30
2022-10-14T20:16:39.651Z,19.90
2022-10-14T20:19:08.114Z,21.80
2022-10-14T20:21:36.384Z,22.10
2022-10-14T20:24:05.261Z,21.50
2022-10-14T20:26:33.543Z,21.30
2022-10-14T20:29:01.885Z,21.40
2022-10-14T20:31:30.243Z,23.90
2022-10-14T20:33:58.528Z,23.00
2022-10-14T20:36:26.781Z,24.10
2022-10-14T20:38:55.123Z,23.20
2022-10-14T20:41:27.200Z,19.80
2022-10-14T20:43:56.514Z,22.00
2022-10-14T20:46:25.337Z,19.60
2022-10-14T20:48:56.713Z,19.20
2022-10-14T20:51:26.410Z,20.70
2022-10-14T20:54:01.769Z,22.00
2022-10-14T20:56:34.596Z,21.30
2022-10-14T20:59:07.853Z,22.10
2022-10-14T21:01:37.132Z,22.80
2022-10-14T21:04:07.974Z,21.20
2022-10-14T21:06:38.952Z,20.10
2022-10-14T21:09:07.834Z,21.10
2022-10-14T21:11:36.086Z,20.90
2022-10-14T21:14:04.519Z,22.90
2022-10-14T21:16:35.658Z,23.10
2022-10-14T21:19:09.920Z,21.40
2022-10-14T21:21:41.766Z,21.30
2022-10-14T21:24:18.223Z,20.80
2022-10-14T21:26:50.486Z,21.50
2022-10-14T21:29:20.564Z,20.50
2022-10-14T21:31:49.649Z,21.20
2022-10-14T21:34:17.901Z,21.60
2022-10-14T21:36:46.128Z,20.90
2022-10-14T21:39:18.090Z,21.20
2022-10-14T21:41:46.731Z,25.00
2022-10-14T21:44:22.268Z,21.80
2022-10-14T21:46:50.591Z,24.40
2022-10-14T21:49:18.867Z,20.50
2022-10-14T21:51:47.109Z,22.00
2022-10-14T21:54:15.396Z,24.10
2022-10-14T21:56:43.770Z,23.40
2022-10-14T21:59:12.410Z,22.20
2022-10-14T22:01:42.036Z,24.20
2022-10-14T22:04:10.961Z,24.90
2022-10-14T22:06:39.198Z,26.30
2022-10-14T22:09:07.971Z,23.20
2022-10-14T22:11:41.527Z,22.80
2022-10-14T22:14:18.814Z,21.70
2022-10-14T22:16:48.428Z,22.50
2022-10-14T22:19:16.706Z,20.80
2022-10-14T22:21:46.470Z,21.70
2022-10-14T22:24:14.750Z,20.80
2022-10-14T22:26:42.986Z,19.20
2022-10-14T22:29:16.881Z,19.70
2022-10-14T22:31:46.507Z,20.00
2022-10-14T22:34:17.227Z,19.60
2022-10-14T22:36:45.593Z,20.30
2022-10-14T22:39:16.580Z,20.60
2022-10-14T22:41:44.836Z,19.70
2022-10-14T22:44:13.129Z,19.90
2022-10-14T22:46:41.407Z,20.90
2022-10-14T22:49:09.665Z,21.80
2022-10-14T22:51:40.662Z,19.00
2022-10-14T22:54:10.702Z,21.30
2022-10-14T22:56:40.293Z,21.20
2022-10-14T22:59:11.462Z,21.20
2022-10-14T23:01:42.568Z,23.50
2022-10-14T23:04:11.830Z,23.40
2022-10-14T23:06:43.813Z,23.10
2022-10-14T23:09:12.341Z,23.10
2022-10-14T23:11:40.691Z,24.30
2022-10-14T23:14:09.219Z,22.50
2022-10-14T23:16:38.917Z,22.20
2022-10-14T23:19:07.448Z,25.10
2022-10-14T23:21:37.756Z,21.90
2022-10-14T23:24:11.373Z,25.40
2022-10-14T23:26:39.717Z,23.60
2022-10-14T23:29:11.716Z,23.30
2022-10-14T23:31:41.526Z,24.20
2022-10-14T23:34:13.162Z,25.30
2022-10-14T23:36:41.889Z,23.30
2022-10-14T23:39:10.566Z,21.10
2022-10-14T23:41:39.108Z,18.70
2022-10-14T23:44:07.337Z,22.20
2022-10-14T23:46:35.539Z,19.50
2022-10-14T23:49:14.292Z,19.20
2022-10-14T23:51:52.436Z,20.80
2022-10-14T23:54:20.863Z,21.30
2022-10-14T23:56:49.122Z,20.30
2022-10-14T23:59:18.286Z,21.10
